sensor_id;sensor_type;location;lat;lon;timestamp;P1;durP1;ratioP1;P2;durP2;ratioP2
2177;SDS011;1095;50.992;6.798;2023-07-09T00:00:26;14.05;;;8.43;;
2177;SDS011;1095;50.992;6.798;2023-07-09T00:02:53;12.38;;;8.85;;
2177;SDS011;1095;50.992;6.798;2023-07-09T00:05:20;12.57;;;7.78;;
2177;SDS011;1095;50.992;6.798;2023-07-09T00:07:47;11.63;;;8.55;;
2177;SDS011;1095;50.992;6.798;2023-07-09T00:10:14;13.10;;;8.60;;
2177;SDS011;1095;50.992;6.798;2023-07-09T00:12:44;12.52;;;7.90;;
2177;SDS011;1095;50.992;6.798;2023-07-09T00:15:11;13.35;;;9.13;;
2177;SDS011;1095;50.992;6.798;2023-07-09T00:17:38;13.25;;;8.73;;
2177;SDS011;1095;50.992;6.798;2023-07-09T00:20:06;13.07;;;8.55;;
2177;SDS011;1095;50.992;6.798;2023-07-09T00:22:38;16.05;;;8.80;;
2177;SDS011;1095;50.992;6.798;2023-07-09T00:25:05;12.13;;;8.98;;
2177;SDS011;1095;50.992;6.798;2023-07-09T00:27:33;10.77;;;8.88;;
2177;SDS011;1095;50.992;6.798;2023-07-09T00:30:01;12.00;;;8.80;;
2177;SDS011;1095;50.992;6.798;2023-07-09T00:32:28;11.68;;;8.65;;
2177;SDS011;1095;50.992;6.798;2023-07-09T00:34:55;11.27;;;8.55;;
2177;SDS011;1095;50.992;6.798;2023-07-09T00:37:23;13.25;;;8.68;;
2177;SDS011;1095;50.992;6.798;2023-07-09T00:39:51;12.68;;;9.13;;
2177;SDS011;1095;50.992;6.798;2023-07-09T00:42:19;14.43;;;9.13;;
2177;SDS011;1095;50.992;6.798;2023-07-09T00:44:50;16.45;;;8.70;;
2177;SDS011;1095;50.992;6.798;2023-07-09T00:47:22;15.05;;;9.10;;
2177;SDS011;1095;50.992;6.798;2023-07-09T00:49:56;13.70;;;9.63;;
2177;SDS011;1095;50.992;6.798;2023-07-09T00:52:31;14.27;;;8.70;;
2177;SDS011;1095;50.992;6.798;2023-07-09T00:55:00;16.13;;;8.25;;
2177;SDS011;1095;50.992;6.798;2023-07-09T00:57:32;14.07;;;8.75;;
2177;SDS011;1095;50.992;6.798;2023-07-09T01:00:05;13.93;;;9.48;;
2177;SDS011;1095;50.992;6.798;2023-07-09T01:02:37;13.98;;;8.70;;
2177;SDS011;1095;50.992;6.798;2023-07-09T01:05:10;11.82;;;8.88;;
2177;SDS011;1095;50.992;6.798;2023-07-09T01:07:39;10.77;;;8.20;;
2177;SDS011;1095;50.992;6.798;2023-07-09T01:10:06;13.18;;;8.40;;
2177;SDS011;1095;50.992;6.798;2023-07-09T01:12:33;14.95;;;9.32;;
2177;SDS011;1095;50.992;6.798;2023-07-09T01:15:00;12.48;;;9.30;;
2177;SDS011;1095;50.992;6.798;2023-07-09T01:17:27;11.02;;;8.65;;
2177;SDS011;1095;50.992;6.798;2023-07-09T01:19:56;12.70;;;8.88;;
2177;SDS011;1095;50.992;6.798;2023-07-09T01:22:25;15.52;;;9.00;;
2177;SDS011;1095;50.992;6.798;2023-07-09T01:24:54;13.32;;;8.88;;
2177;SDS011;1095;50.992;6.798;2023-07-09T01:27:26;14.00;;;9.10;;
2177;SDS011;1095;50.992;6.798;2023-07-09T01:29:56;11.93;;;8.70;;
2177;SDS011;1095;50.992;6.798;2023-07-09T01:32:24;11.23;;;8.82;;
2177;SDS011;1095;50.992;6.798;2023-07-09T01:34:52;10.75;;;8.52;;
2177;SDS011;1095;50.992;6.798;2023-07-09T01:37:22;13.77;;;9.00;;
2177;SDS011;1095;50.992;6.798;2023-07-09T01:39:52;13.13;;;9.60;;
2177;SDS011;1095;50.992;6.798;2023-07-09T01:42:20;12.90;;;9.27;;
2177;SDS011;1095;50.992;6.798;2023-07-09T01:44:49;15.50;;;9.20;;
2177;SDS011;1095;50.992;6.798;2023-07-09T01:47:16;12.18;;;9.52;;
2177;SDS011;1095;50.992;6.798;2023-07-09T01:49:43;15.15;;;9.55;;
2177;SDS011;1095;50.992;6.798;2023-07-09T01:52:11;13.05;;;9.38;;
2177;SDS011;1095;50.992;6.798;2023-07-09T01:54:42;13.85;;;9.07;;
2177;SDS011;1095;50.992;6.798;2023-07-09T01:57:15;13.32;;;10.20;;
2177;SDS011;1095;50.992;6.798;2023-07-09T01:59:48;16.23;;;9.90;;
2177;SDS011;1095;50.992;6.798;2023-07-09T02:02:15;17.60;;;9.93;;
2177;SDS011;1095;50.992;6.798;2023-07-09T02:04:44;19.90;;;10.05;;
2177;SDS011;1095;50.992;6.798;2023-07-09T02:07:11;14.63;;;9.38;;
2177;SDS011;1095;50.992;6.798;2023-07-09T02:09:38;12.40;;;9.65;;
2177;SDS011;1095;50.992;6.798;2023-07-09T02:12:06;15.65;;;10.02;;
2177;SDS011;1095;50.992;6.798;2023-07-09T02:14:33;19.17;;;10.13;;
2177;SDS011;1095;50.992;6.798;2023-07-09T02:17:00;15.75;;;10.13;;
2177;SDS011;1095;50.992;6.798;2023-07-09T02:19:27;13.43;;;9.70;;
2177;SDS011;1095;50.992;6.798;2023-07-09T02:21:54;15.90;;;10.63;;
2177;SDS011;1095;50.992;6.798;2023-07-09T02:24:21;18.08;;;10.45;;
2177;SDS011;1095;50.992;6.798;2023-07-09T02:26:49;14.00;;;10.55;;
2177;SDS011;1095;50.992;6.798;2023-07-09T02:29:17;14.43;;;10.68;;
2177;SDS011;1095;50.992;6.798;2023-07-09T02:31:44;15.85;;;10.90;;
2177;SDS011;1095;50.992;6.798;2023-07-09T02:34:11;14.13;;;9.65;;
2177;SDS011;1095;50.992;6.798;2023-07-09T02:36:37;17.13;;;10.52;;
2177;SDS011;1095;50.992;6.798;2023-07-09T02:39:08;16.30;;;10.18;;
2177;SDS011;1095;50.992;6.798;2023-07-09T02:41:35;16.75;;;10.00;;
2177;SDS011;1095;50.992;6.798;2023-07-09T02:44:02;18.70;;;10.73;;
2177;SDS011;1095;50.992;6.798;2023-07-09T02:46:30;14.68;;;10.02;;
2177;SDS011;1095;50.992;6.798;2023-07-09T02:48:56;16.95;;;10.30;;
2177;SDS011;1095;50.992;6.798;2023-07-09T02:51:23;14.02;;;10.15;;
2177;SDS011;1095;50.992;6.798;2023-07-09T02:53:51;15.52;;;9.95;;
2177;SDS011;1095;50.992;6.798;2023-07-09T02:56:18;12.48;;;9.85;;
2177;SDS011;1095;50.992;6.798;2023-07-09T02:58:45;12.85;;;10.27;;
2177;SDS011;1095;50.992;6.798;2023-07-09T03:01:11;11.35;;;9.35;;
2177;SDS011;1095;50.992;6.798;2023-07-09T03:03:40;14.20;;;10.07;;
2177;SDS011;1095;50.992;6.798;2023-07-09T03:06:06;13.38;;;10.35;;
2177;SDS011;1095;50.992;6.798;2023-07-09T03:08:33;18.45;;;10.82;;
2177;SDS011;1095;50.992;6.798;2023-07-09T03:11:00;15.30;;;10.70;;
2177;SDS011;1095;50.992;6.798;2023-07-09T03:13:33;15.40;;;10.43;;
2177;SDS011;1095;50.992;6.798;2023-07-09T03:16:00;16.88;;;11.10;;
2177;SDS011;1095;50.992;6.798;2023-07-09T03:18:27;15.48;;;10.88;;
2177;SDS011;1095;50.992;6.798;2023-07-09T03:20:54;14.85;;;10.68;;
2177;SDS011;1095;50.992;6.798;2023-07-09T03:23:21;13.13;;;10.00;;
2177;SDS011;1095;50.992;6.798;2023-07-09T03:25:48;14.25;;;10.07;;
2177;SDS011;1095;50.992;6.798;2023-07-09T03:28:15;14.40;;;10.82;;
2177;SDS011;1095;50.992;6.798;2023-07-09T03:30:42;14.73;;;10.27;;
2177;SDS011;1095;50.992;6.798;2023-07-09T03:33:09;15.40;;;10.45;;
2177;SDS011;1095;50.992;6.798;2023-07-09T03:35:36;15.20;;;10.35;;
2177;SDS011;1095;50.992;6.798;2023-07-09T03:38:04;16.63;;;10.60;;
2177;SDS011;1095;50.992;6.798;2023-07-09T03:40:31;18.50;;;10.30;;
2177;SDS011;1095;50.992;6.798;2023-07-09T03:42:58;16.48;;;10.43;;
2177;SDS011;1095;50.992;6.798;2023-07-09T03:45:25;13.38;;;10.05;;
2177;SDS011;1095;50.992;6.798;2023-07-09T03:47:52;14.30;;;10.10;;
2177;SDS011;1095;50.992;6.798;2023-07-09T03:50:19;15.00;;;10.10;;
2177;SDS011;1095;50.992;6.798;2023-07-09T03:52:45;16.92;;;10.35;;
2177;SDS011;1095;50.992;6.798;2023-07-09T03:55:13;12.45;;;10.05;;
2177;SDS011;1095;50.992;6.798;2023-07-09T03:57:40;17.95;;;10.65;;
2177;SDS011;1095;50.992;6.798;2023-07-09T04:00:07;13.40;;;10.70;;
2177;SDS011;1095;50.992;6.798;2023-07-09T04:02:35;11.32;;;9.25;;
2177;SDS011;1095;50.992;6.798;2023-07-09T04:05:02;13.82;;;10.02;;
2177;SDS011;1095;50.992;6.798;2023-07-09T04:07:29;16.15;;;9.95;;
2177;SDS011;1095;50.992;6.798;2023-07-09T04:09:56;17.30;;;9.57;;
2177;SDS011;1095;50.992;6.798;2023-07-09T04:12:24;12.70;;;9.60;;
2177;SDS011;1095;50.992;6.798;2023-07-09T04:14:50;15.30;;;9.68;;
2177;SDS011;1095;50.992;6.798;2023-07-09T04:17:17;17.92;;;9.70;;
2177;SDS011;1095;50.992;6.798;2023-07-09T04:19:44;16.45;;;9.52;;
2177;SDS011;1095;50.992;6.798;2023-07-09T04:22:11;18.45;;;10.13;;
2177;SDS011;1095;50.992;6.798;2023-07-09T04:24:37;15.55;;;10.27;;
2177;SDS011;1095;50.992;6.798;2023-07-09T04:27:04;15.77;;;9.73;;
2177;SDS011;1095;50.992;6.798;2023-07-09T04:54:36;13.52;;;9.38;;
2177;SDS011;1095;50.992;6.798;2023-07-09T10:02:22;11.57;;;7.10;;
2177;SDS011;1095;50.992;6.798;2023-07-09T10:05:56;10.50;;;6.88;;
2177;SDS011;1095;50.992;6.798;2023-07-09T10:15:25;10.50;;;7.03;;
2177;SDS011;1095;50.992;6.798;2023-07-09T10:18:24;11.77;;;6.88;;
2177;SDS011;1095;50.992;6.798;2023-07-09T10:21:01;10.57;;;7.35;;
2177;SDS011;1095;50.992;6.798;2023-07-09T10:23:35;10.68;;;7.32;;
2177;SDS011;1095;50.992;6.798;2023-07-09T10:26:08;11.85;;;7.70;;
2177;SDS011;1095;50.992;6.798;2023-07-09T10:28:43;9.73;;;6.97;;
2177;SDS011;1095;50.992;6.798;2023-07-09T10:31:22;9.55;;;6.38;;
2177;SDS011;1095;50.992;6.798;2023-07-09T10:34:04;9.25;;;6.85;;
2177;SDS011;1095;50.992;6.798;2023-07-09T10:36:44;11.98;;;6.80;;
2177;SDS011;1095;50.992;6.798;2023-07-09T10:39:28;12.02;;;7.28;;
2177;SDS011;1095;50.992;6.798;2023-07-09T10:42:00;8.90;;;6.85;;
2177;SDS011;1095;50.992;6.798;2023-07-09T10:44:29;10.70;;;7.32;;
2177;SDS011;1095;50.992;6.798;2023-07-09T10:47:01;8.55;;;7.03;;
2177;SDS011;1095;50.992;6.798;2023-07-09T10:49:34;9.40;;;7.03;;
2177;SDS011;1095;50.992;6.798;2023-07-09T10:52:05;8.98;;;6.78;;
2177;SDS011;1095;50.992;6.798;2023-07-09T10:54:39;10.10;;;6.68;;
2177;SDS011;1095;50.992;6.798;2023-07-09T10:57:14;11.25;;;7.15;;
2177;SDS011;1095;50.992;6.798;2023-07-09T10:59:46;9.98;;;6.75;;
2177;SDS011;1095;50.992;6.798;2023-07-09T11:02:17;8.25;;;6.43;;
2177;SDS011;1095;50.992;6.798;2023-07-09T11:04:49;10.35;;;6.72;;
2177;SDS011;1095;50.992;6.798;2023-07-09T11:07:20;11.93;;;7.68;;
2177;SDS011;1095;50.992;6.798;2023-07-09T11:09:52;7.88;;;6.63;;
2177;SDS011;1095;50.992;6.798;2023-07-09T11:12:23;15.00;;;7.45;;
2177;SDS011;1095;50.992;6.798;2023-07-09T11:14:54;11.07;;;7.00;;
2177;SDS011;1095;50.992;6.798;2023-07-09T11:17:25;11.55;;;6.60;;
2177;SDS011;1095;50.992;6.798;2023-07-09T11:19:55;8.65;;;6.88;;
2177;SDS011;1095;50.992;6.798;2023-07-09T11:22:25;11.20;;;6.72;;
2177;SDS011;1095;50.992;6.798;2023-07-09T11:25:04;10.02;;;6.75;;
2177;SDS011;1095;50.992;6.798;2023-07-09T11:27:33;8.88;;;6.35;;
2177;SDS011;1095;50.992;6.798;2023-07-09T11:30:19;8.70;;;6.60;;
2177;SDS011;1095;50.992;6.798;2023-07-09T11:32:47;8.13;;;6.90;;
2177;SDS011;1095;50.992;6.798;2023-07-09T11:37:48;10.48;;;6.88;;
2177;SDS011;1095;50.992;6.798;2023-07-09T11:40:15;9.95;;;7.05;;
2177;SDS011;1095;50.992;6.798;2023-07-09T11:42:47;11.60;;;6.90;;
2177;SDS011;1095;50.992;6.798;2023-07-09T11:45:17;9.18;;;6.70;;
2177;SDS011;1095;50.992;6.798;2023-07-09T11:47:50;13.95;;;7.28;;
2177;SDS011;1095;50.992;6.798;2023-07-09T11:50:24;9.15;;;6.50;;
2177;SDS011;1095;50.992;6.798;2023-07-09T11:52:54;10.50;;;6.78;;
2177;SDS011;1095;50.992;6.798;2023-07-09T11:55:27;7.68;;;5.70;;
2177;SDS011;1095;50.992;6.798;2023-07-09T11:57:59;9.52;;;6.43;;
2177;SDS011;1095;50.992;6.798;2023-07-09T12:00:27;10.90;;;6.00;;
2177;SDS011;1095;50.992;6.798;2023-07-09T12:02:56;8.23;;;5.90;;
2177;SDS011;1095;50.992;6.798;2023-07-09T12:05:26;8.23;;;6.03;;
2177;SDS011;1095;50.992;6.798;2023-07-09T12:07:55;9.23;;;6.32;;
2177;SDS011;1095;50.992;6.798;2023-07-09T12:10:26;9.55;;;6.18;;
2177;SDS011;1095;50.992;6.798;2023-07-09T12:12:55;7.80;;;5.90;;
2177;SDS011;1095;50.992;6.798;2023-07-09T12:15:41;8.07;;;5.82;;
2177;SDS011;1095;50.992;6.798;2023-07-09T12:21:48;8.63;;;5.87;;
2177;SDS011;1095;50.992;6.798;2023-07-09T12:31:47;8.93;;;5.80;;
2177;SDS011;1095;50.992;6.798;2023-07-09T12:42:15;9.10;;;5.60;;
2177;SDS011;1095;50.992;6.798;2023-07-09T12:45:00;7.97;;;6.05;;
2177;SDS011;1095;50.992;6.798;2023-07-09T12:54:51;7.65;;;5.95;;
2177;SDS011;1095;50.992;6.798;2023-07-09T12:57:58;10.70;;;5.82;;
2177;SDS011;1095;50.992;6.798;2023-07-09T13:01:22;9.68;;;5.65;;
2177;SDS011;1095;50.992;6.798;2023-07-09T13:10:38;8.57;;;5.65;;
2177;SDS011;1095;50.992;6.798;2023-07-09T13:41:00;9.02;;;5.78;;
2177;SDS011;1095;50.992;6.798;2023-07-09T13:44:08;43.53;;;6.82;;
2177;SDS011;1095;50.992;6.798;2023-07-09T13:47:32;11.32;;;5.90;;
2177;SDS011;1095;50.992;6.798;2023-07-09T13:58:21;13.70;;;6.10;;
2177;SDS011;1095;50.992;6.798;2023-07-09T14:05:07;18.52;;;6.93;;
2177;SDS011;1095;50.992;6.798;2023-07-09T14:11:55;14.57;;;6.65;;
2177;SDS011;1095;50.992;6.798;2023-07-09T14:15:09;12.63;;;6.55;;
2177;SDS011;1095;50.992;6.798;2023-07-09T14:18:19;10.70;;;6.90;;
2177;SDS011;1095;50.992;6.798;2023-07-09T14:24:28;19.02;;;6.47;;
2177;SDS011;1095;50.992;6.798;2023-07-09T14:27:19;16.90;;;6.32;;
2177;SDS011;1095;50.992;6.798;2023-07-09T14:30:45;9.95;;;6.13;;
2177;SDS011;1095;50.992;6.798;2023-07-09T14:48:04;19.77;;;7.72;;
2177;SDS011;1095;50.992;6.798;2023-07-09T14:50:35;18.98;;;9.00;;
2177;SDS011;1095;50.992;6.798;2023-07-09T14:53:02;19.52;;;8.95;;
2177;SDS011;1095;50.992;6.798;2023-07-09T14:55:29;15.02;;;7.82;;
2177;SDS011;1095;50.992;6.798;2023-07-09T14:57:55;12.23;;;7.22;;
2177;SDS011;1095;50.992;6.798;2023-07-09T15:00:25;15.13;;;7.88;;
2177;SDS011;1095;50.992;6.798;2023-07-09T15:02:52;13.43;;;7.22;;
2177;SDS011;1095;50.992;6.798;2023-07-09T15:05:23;13.07;;;6.88;;
2177;SDS011;1095;50.992;6.798;2023-07-09T15:07:51;10.02;;;7.47;;
2177;SDS011;1095;50.992;6.798;2023-07-09T15:10:18;15.73;;;8.68;;
2177;SDS011;1095;50.992;6.798;2023-07-09T15:12:52;11.57;;;8.65;;
2177;SDS011;1095;50.992;6.798;2023-07-09T15:15:20;15.82;;;9.18;;
2177;SDS011;1095;50.992;6.798;2023-07-09T15:17:49;14.02;;;8.88;;
2177;SDS011;1095;50.992;6.798;2023-07-09T15:20:16;12.20;;;9.80;;
2177;SDS011;1095;50.992;6.798;2023-07-09T15:22:46;17.67;;;12.15;;
2177;SDS011;1095;50.992;6.798;2023-07-09T15:25:14;16.60;;;11.63;;
2177;SDS011;1095;50.992;6.798;2023-07-09T15:27:42;16.92;;;12.35;;
2177;SDS011;1095;50.992;6.798;2023-07-09T15:30:12;16.00;;;12.10;;
2177;SDS011;1095;50.992;6.798;2023-07-09T15:32:40;18.17;;;13.60;;
2177;SDS011;1095;50.992;6.798;2023-07-09T15:35:07;17.65;;;14.20;;
2177;SDS011;1095;50.992;6.798;2023-07-09T15:37:34;18.10;;;13.52;;
2177;SDS011;1095;50.992;6.798;2023-07-09T15:40:02;16.80;;;13.93;;
2177;SDS011;1095;50.992;6.798;2023-07-09T15:42:30;18.55;;;14.57;;
2177;SDS011;1095;50.992;6.798;2023-07-09T15:44:56;15.82;;;14.10;;
2177;SDS011;1095;50.992;6.798;2023-07-09T15:47:24;15.32;;;13.65;;
2177;SDS011;1095;50.992;6.798;2023-07-09T15:49:53;18.02;;;13.70;;
2177;SDS011;1095;50.992;6.798;2023-07-09T15:52:20;13.88;;;10.82;;
2177;SDS011;1095;50.992;6.798;2023-07-09T15:54:47;16.83;;;10.27;;
2177;SDS011;1095;50.992;6.798;2023-07-09T15:57:14;14.20;;;9.70;;
2177;SDS011;1095;50.992;6.798;2023-07-09T15:59:42;12.75;;;9.10;;
2177;SDS011;1095;50.992;6.798;2023-07-09T16:02:10;14.95;;;10.70;;
2177;SDS011;1095;50.992;6.798;2023-07-09T16:04:38;15.63;;;10.98;;
2177;SDS011;1095;50.992;6.798;2023-07-09T16:07:05;18.48;;;10.77;;
2177;SDS011;1095;50.992;6.798;2023-07-09T16:09:31;17.25;;;10.88;;
2177;SDS011;1095;50.992;6.798;2023-07-09T16:11:58;14.80;;;10.60;;
2177;SDS011;1095;50.992;6.798;2023-07-09T16:14:27;14.90;;;10.95;;
2177;SDS011;1095;50.992;6.798;2023-07-09T16:16:55;16.27;;;11.55;;
2177;SDS011;1095;50.992;6.798;2023-07-09T16:19:23;14.63;;;8.80;;
2177;SDS011;1095;50.992;6.798;2023-07-09T16:21:51;11.98;;;8.13;;
2177;SDS011;1095;50.992;6.798;2023-07-09T16:24:21;11.88;;;8.20;;
2177;SDS011;1095;50.992;6.798;2023-07-09T16:26:50;11.95;;;7.55;;
2177;SDS011;1095;50.992;6.798;2023-07-09T16:29:19;9.20;;;6.80;;
2177;SDS011;1095;50.992;6.798;2023-07-09T16:31:51;13.35;;;7.22;;
2177;SDS011;1095;50.992;6.798;2023-07-09T16:34:19;11.25;;;7.30;;
2177;SDS011;1095;50.992;6.798;2023-07-09T16:36:45;9.77;;;6.95;;
2177;SDS011;1095;50.992;6.798;2023-07-09T16:39:21;11.27;;;7.25;;
2177;SDS011;1095;50.992;6.798;2023-07-09T16:41:50;9.88;;;7.45;;
2177;SDS011;1095;50.992;6.798;2023-07-09T16:44:17;10.75;;;8.52;;
2177;SDS011;1095;50.992;6.798;2023-07-09T16:46:43;12.52;;;7.53;;
2177;SDS011;1095;50.992;6.798;2023-07-09T16:49:21;10.82;;;7.90;;
2177;SDS011;1095;50.992;6.798;2023-07-09T16:51:52;14.63;;;8.48;;
2177;SDS011;1095;50.992;6.798;2023-07-09T16:54:19;17.65;;;8.20;;
2177;SDS011;1095;50.992;6.798;2023-07-09T16:56:46;9.18;;;7.72;;
2177;SDS011;1095;50.992;6.798;2023-07-09T16:59:13;9.43;;;7.60;;
2177;SDS011;1095;50.992;6.798;2023-07-09T17:01:39;10.30;;;8.18;;
2177;SDS011;1095;50.992;6.798;2023-07-09T17:04:11;9.52;;;8.45;;
2177;SDS011;1095;50.992;6.798;2023-07-09T17:06:46;13.35;;;7.97;;
2177;SDS011;1095;50.992;6.798;2023-07-09T17:09:16;10.40;;;7.90;;
2177;SDS011;1095;50.992;6.798;2023-07-09T17:11:43;12.25;;;8.60;;
2177;SDS011;1095;50.992;6.798;2023-07-09T17:14:12;11.30;;;8.05;;
2177;SDS011;1095;50.992;6.798;2023-07-09T17:16:41;13.70;;;8.25;;
2177;SDS011;1095;50.992;6.798;2023-07-09T17:19:08;10.55;;;7.93;;
2177;SDS011;1095;50.992;6.798;2023-07-09T17:21:43;12.20;;;8.00;;
2177;SDS011;1095;50.992;6.798;2023-07-09T17:24:16;13.20;;;8.70;;
2177;SDS011;1095;50.992;6.798;2023-07-09T17:26:47;10.68;;;7.90;;
2177;SDS011;1095;50.992;6.798;2023-07-09T17:29:14;11.85;;;7.85;;
2177;SDS011;1095;50.992;6.798;2023-07-09T17:31:42;11.90;;;8.10;;
2177;SDS011;1095;50.992;6.798;2023-07-09T17:34:17;11.55;;;7.65;;
2177;SDS011;1095;50.992;6.798;2023-07-09T18:28:10;12.32;;;8.32;;
2177;SDS011;1095;50.992;6.798;2023-07-09T18:30:54;11.65;;;8.73;;
2177;SDS011;1095;50.992;6.798;2023-07-09T20:30:40;17.73;;;11.68;;
2177;SDS011;1095;50.992;6.798;2023-07-09T21:39:31;28.83;;;17.63;;
2177;SDS011;1095;50.992;6.798;2023-07-09T21:56:49;30.77;;;18.58;;
2177;SDS011;1095;50.992;6.798;2023-07-09T22:03:22;27.98;;;19.15;;
2177;SDS011;1095;50.992;6.798;2023-07-09T22:05:49;27.83;;;18.60;;
2177;SDS011;1095;50.992;6.798;2023-07-09T22:08:25;27.73;;;18.60;;
2177;SDS011;1095;50.992;6.798;2023-07-09T22:10:56;24.30;;;17.30;;
2177;SDS011;1095;50.992;6.798;2023-07-09T22:13:26;27.63;;;18.35;;
2177;SDS011;1095;50.992;6.798;2023-07-09T22:15:55;27.05;;;18.92;;
2177;SDS011;1095;50.992;6.798;2023-07-09T22:18:24;29.80;;;18.85;;
2177;SDS011;1095;50.992;6.798;2023-07-09T22:20:50;30.55;;;19.35;;
2177;SDS011;1095;50.992;6.798;2023-07-09T22:23:19;26.50;;;19.10;;
2177;SDS011;1095;50.992;6.798;2023-07-09T22:25:47;26.85;;;20.15;;
2177;SDS011;1095;50.992;6.798;2023-07-09T22:28:15;33.45;;;22.27;;
2177;SDS011;1095;50.992;6.798;2023-07-09T22:30:50;32.97;;;20.60;;
2177;SDS011;1095;50.992;6.798;2023-07-09T22:33:16;30.05;;;23.30;;
2177;SDS011;1095;50.992;6.798;2023-07-09T22:38:28;31.60;;;23.38;;
2177;SDS011;1095;50.992;6.798;2023-07-09T22:40:55;40.33;;;23.70;;
2177;SDS011;1095;50.992;6.798;2023-07-09T22:46:13;37.55;;;25.92;;
2177;SDS011;1095;50.992;6.798;2023-07-09T22:48:42;37.38;;;25.80;;
2177;SDS011;1095;50.992;6.798;2023-07-09T22:51:11;37.70;;;25.90;;
2177;SDS011;1095;50.992;6.798;2023-07-09T22:53:38;37.17;;;28.42;;
2177;SDS011;1095;50.992;6.798;2023-07-09T22:56:05;33.60;;;26.13;;
2177;SDS011;1095;50.992;6.798;2023-07-09T22:58:32;32.55;;;25.42;;
2177;SDS011;1095;50.992;6.798;2023-07-09T23:01:00;32.92;;;27.40;;
2177;SDS011;1095;50.992;6.798;2023-07-09T23:03:39;34.10;;;26.67;;
2177;SDS011;1095;50.992;6.798;2023-07-09T23:06:09;42.40;;;27.55;;
2177;SDS011;1095;50.992;6.798;2023-07-09T23:08:37;32.08;;;25.42;;
2177;SDS011;1095;50.992;6.798;2023-07-09T23:11:19;39.15;;;25.58;;
2177;SDS011;1095;50.992;6.798;2023-07-09T23:13:51;37.58;;;27.27;;
2177;SDS011;1095;50.992;6.798;2023-07-09T23:16:36;33.75;;;26.27;;
2177;SDS011;1095;50.992;6.798;2023-07-09T23:19:21;32.10;;;25.40;;
2177;SDS011;1095;50.992;6.798;2023-07-09T23:21:58;30.30;;;24.85;;
2177;SDS011;1095;50.992;6.798;2023-07-09T23:24:28;31.98;;;26.35;;
2177;SDS011;1095;50.992;6.798;2023-07-09T23:26:58;36.17;;;26.17;;
2177;SDS011;1095;50.992;6.798;2023-07-09T23:29:26;34.83;;;26.42;;
2177;SDS011;1095;50.992;6.798;2023-07-09T23:31:58;36.75;;;26.70;;
2177;SDS011;1095;50.992;6.798;2023-07-09T23:34:30;32.70;;;26.63;;
2177;SDS011;1095;50.992;6.798;2023-07-09T23:36:58;32.00;;;25.67;;
2177;SDS011;1095;50.992;6.798;2023-07-09T23:39:40;27.42;;;23.65;;
2177;SDS011;1095;50.992;6.798;2023-07-09T23:42:57;32.35;;;23.88;;
